Time;durP1;ratioP1;P1;durP2;ratioP2;P2;SDS_P1;SDS_P2;PMS_P1;PMS_P2;Temp;Humidity;BMP_temperature;BMP_pressure;BME280_temperature;BME280_humidity;BME280_pressure;Samples;Min_cycle;Max_cycle;Signal;HPM_P1;HPM_P2
2023/03/22 00:02:09;;;;;;;11.75;5.10;;;10.70;83.50;;;;;;5048766;28;20143;-82
2023/03/22 00:04:37;;;;;;;11.25;5.20;;;10.70;83.50;;;;;;5049128;28;20045;-82
2023/03/22 00:07:04;;;;;;;11.98;5.43;;;10.70;83.50;;;;;;5048577;28;20045;-82
2023/03/22 00:09:32;;;;;;;11.48;5.35;;;10.70;83.30;;;;;;5040745;28;20061;-83
2023/03/22 00:12:01;;;;;;;10.70;4.93;;;10.70;83.20;;;;;;5048866;28;20045;-82
2023/03/22 00:14:28;;;;;;;13.73;4.60;;;10.70;83.10;;;;;;5032018;28;20053;-81
2023/03/22 00:16:55;;;;;;;10.02;4.50;;;10.70;82.90;;;;;;5032527;28;20658;-82
2023/03/22 00:19:23;;;;;;;9.57;4.40;;;10.70;82.60;;;;;;5032046;28;20061;-82
2023/03/22 00:21:51;;;;;;;11.18;4.32;;;10.70;82.40;;;;;;5048039;28;20419;-83
2023/03/22 00:24:19;;;;;;;10.07;4.30;;;10.60;82.30;;;;;;5032217;28;20168;-83
2023/03/22 00:26:48;;;;;;;11.52;4.28;;;10.60;82.30;;;;;;5043086;28;20050;-83
2023/03/22 00:29:15;;;;;;;8.82;4.05;;;10.60;82.20;;;;;;5048354;28;20158;-83
2023/03/22 00:31:42;;;;;;;11.57;4.07;;;10.60;82.30;;;;;;5032148;28;20053;-83
2023/03/22 00:34:09;;;;;;;10.18;4.10;;;10.50;82.40;;;;;;5032850;28;20565;-83
2023/03/22 00:36:39;;;;;;;10.10;3.70;;;10.50;82.30;;;;;;5041533;28;20128;-83
2023/03/22 00:39:06;;;;;;;11.82;4.63;;;10.50;82.00;;;;;;5031294;28;20459;-83
2023/03/22 00:41:35;;;;;;;10.75;4.18;;;10.50;81.90;;;;;;5033796;28;20049;-82
2023/03/22 00:44:03;;;;;;;10.90;3.97;;;10.50;81.70;;;;;;5032753;28;20554;-82
2023/03/22 00:46:31;;;;;;;11.73;3.70;;;10.50;81.80;;;;;;5031533;28;20050;-83
2023/03/22 00:48:57;;;;;;;9.80;3.57;;;10.40;81.70;;;;;;5031124;28;20057;-82
2023/03/22 00:51:24;;;;;;;8.68;3.38;;;10.40;81.60;;;;;;5031601;28;20077;-81
2023/03/22 00:53:52;;;;;;;11.77;2.90;;;10.40;81.60;;;;;;5031352;28;20052;-82
2023/03/22 00:56:21;;;;;;;10.95;3.70;;;10.40;81.50;;;;;;5031621;28;20045;-83
2023/03/22 00:58:58;;;;;;;9.35;2.78;;;10.40;81.30;;;;;;5011809;28;20127;-82
2023/03/22 01:01:26;;;;;;;8.47;2.70;;;10.40;81.30;;;;;;5037439;28;20115;-82
2023/03/22 01:03:55;;;;;;;8.10;2.63;;;10.40;81.50;;;;;;5048095;28;20060;-82
2023/03/22 01:06:22;;;;;;;10.98;3.00;;;10.30;81.50;;;;;;5031171;28;20053;-82
2023/03/22 01:08:49;;;;;;;9.63;2.95;;;10.30;81.40;;;;;;5031300;28;20057;-82
2023/03/22 01:11:17;;;;;;;7.30;2.30;;;10.30;81.20;;;;;;5047351;28;20135;-82
2023/03/22 01:13:44;;;;;;;8.63;1.83;;;10.30;81.20;;;;;;5031809;28;20052;-82
2023/03/22 01:16:11;;;;;;;6.97;2.22;;;10.30;81.20;;;;;;5030603;28;20046;-82
2023/03/22 01:18:40;;;;;;;7.03;2.03;;;10.30;81.20;;;;;;5035729;28;20158;-82
2023/03/22 01:21:08;;;;;;;8.18;2.20;;;10.30;81.40;;;;;;5030798;28;20061;-81
2023/03/22 01:23:36;;;;;;;8.23;2.10;;;10.30;81.30;;;;;;5031172;28;20045;-82
2023/03/22 01:26:03;;;;;;;8.80;2.03;;;10.20;81.30;;;;;;5030174;28;20500;-82
2023/03/22 01:28:30;;;;;;;6.10;2.28;;;10.30;81.20;;;;;;5048263;28;20132;-82
2023/03/22 01:31:01;;;;;;;7.50;2.03;;;10.30;81.10;;;;;;5067445;28;20065;-82
2023/03/22 01:33:28;;;;;;;8.65;2.20;;;10.20;81.10;;;;;;5032517;28;20046;-82
2023/03/22 01:35:56;;;;;;;6.35;2.15;;;10.20;81.20;;;;;;5034477;28;20553;-82
2023/03/22 01:38:24;;;;;;;9.90;2.27;;;10.20;81.20;;;;;;5032771;28;20053;-82
2023/03/22 01:40:57;;;;;;;8.93;2.08;;;10.20;81.20;;;;;;5030752;28;20472;-82
2023/03/22 01:43:24;;;;;;;8.20;2.30;;;10.20;81.20;;;;;;5030901;28;20056;-81
2023/03/22 01:45:51;;;;;;;7.57;1.95;;;10.20;81.10;;;;;;5047764;28;20053;-83
2023/03/22 01:48:27;;;;;;;6.07;1.90;;;10.20;81.10;;;;;;5032280;28;20053;-81
2023/03/22 01:51:06;;;;;;;9.80;1.83;;;10.20;81.10;;;;;;5026264;28;20053;-82
2023/03/22 01:53:42;;;;;;;7.15;1.83;;;10.20;81.10;;;;;;5028301;28;20056;-82
2023/03/22 01:56:11;;;;;;;6.95;2.03;;;10.20;81.10;;;;;;5033649;28;20085;-83
2023/03/22 01:58:39;;;;;;;8.88;1.98;;;10.20;81.20;;;;;;5026953;28;20045;-82
2023/03/22 02:01:11;;;;;;;6.97;1.85;;;10.20;81.20;;;;;;5029847;28;20050;-82
2023/03/22 02:03:52;;;;;;;8.13;2.10;;;10.20;81.20;;;;;;5030652;28;20057;-83
2023/03/22 02:06:23;;;;;;;8.48;2.10;;;10.20;81.10;;;;;;5046532;28;20104;-81
2023/03/22 02:08:57;;;;;;;7.22;2.30;;;10.20;81.20;;;;;;5030267;28;20046;-82
2023/03/22 02:11:29;;;;;;;8.75;2.05;;;10.20;81.20;;;;;;5030180;28;20045;-82
2023/03/22 02:14:14;;;;;;;9.07;2.10;;;10.20;81.20;;;;;;5030624;28;20237;-82
2023/03/22 02:17:14;;;;;;;8.53;1.90;;;10.20;81.10;;;;;;5043081;28;20046;-82
2023/03/22 02:20:33;;;;;;;9.43;2.22;;;10.20;81.20;;;;;;5027910;28;20362;-82
2023/03/22 02:23:33;;;;;;;6.70;2.30;;;10.20;81.20;;;;;;5008848;28;20112;-82
2023/03/22 02:26:45;;;;;;;9.80;2.45;;;10.20;81.30;;;;;;5030926;28;20124;-83
2023/03/22 02:29:18;;;;;;;8.38;2.80;;;10.10;81.30;;;;;;5046405;28;20236;-81
2023/03/22 02:32:05;;;;;;;9.43;2.30;;;10.20;81.30;;;;;;5030118;28;20583;-81
2023/03/22 02:35:08;;;;;;;7.80;2.40;;;10.20;81.20;;;;;;5030532;28;20050;-82
2023/03/22 02:38:02;;;;;;;7.43;2.17;;;10.10;81.30;;;;;;5030065;28;20049;-82
2023/03/22 02:40:35;;;;;;;7.80;2.00;;;10.10;81.60;;;;;;5024988;28;20053;-83
2023/03/22 02:43:15;;;;;;;9.70;2.38;;;10.10;81.50;;;;;;5033081;28;20077;-83
2023/03/22 02:45:46;;;;;;;7.70;2.03;;;10.10;81.60;;;;;;5043454;28;20599;-82
2023/03/22 02:48:18;;;;;;;8.55;2.17;;;10.10;81.70;;;;;;5033461;28;20144;-82
2023/03/22 02:50:52;;;;;;;10.05;2.30;;;10.10;81.70;;;;;;5033489;28;20457;-82
2023/03/22 02:53:22;;;;;;;9.13;1.90;;;10.10;81.70;;;;;;5024602;28;20522;-82
2023/03/22 02:55:54;;;;;;;8.82;2.60;;;10.10;81.70;;;;;;5033509;28;20104;-82
2023/03/22 02:58:27;;;;;;;9.37;2.17;;;10.10;81.70;;;;;;5013831;28;20116;-82
2023/03/22 03:00:59;;;;;;;9.88;2.40;;;10.10;81.70;;;;;;5035513;28;20135;-82
2023/03/22 03:03:28;;;;;;;7.53;2.10;;;10.10;81.60;;;;;;5013859;28;20611;-83
2023/03/22 03:06:00;;;;;;;9.40;2.22;;;10.10;81.60;;;;;;5013493;28;20121;-82
2023/03/22 03:08:29;;;;;;;6.22;1.95;;;10.10;81.70;;;;;;5046286;28;20099;-82
2023/03/22 03:10:58;;;;;;;9.63;1.90;;;10.10;81.60;;;;;;5044695;28;20075;-81
2023/03/22 03:13:25;;;;;;;7.22;1.80;;;10.10;81.70;;;;;;5033571;28;20049;-82
2023/03/22 03:15:57;;;;;;;7.03;2.08;;;10.10;81.70;;;;;;5033225;28;20085;-83
2023/03/22 03:18:39;;;;;;;7.95;2.10;;;10.10;81.70;;;;;;5033094;28;20731;-83
2023/03/22 03:21:15;;;;;;;7.35;1.90;;;10.10;81.60;;;;;;5017265;28;20140;-83
2023/03/22 03:23:51;;;;;;;9.27;2.10;;;10.10;81.60;;;;;;5032967;28;20136;-82
2023/03/22 03:26:29;;;;;;;9.63;1.77;;;10.10;81.60;;;;;;5049342;28;20650;-82
2023/03/22 03:29:02;;;;;;;7.00;1.88;;;10.10;81.70;;;;;;5049547;28;20503;-83
2023/03/22 03:31:36;;;;;;;6.30;2.03;;;10.10;81.60;;;;;;5032588;28;20058;-83
2023/03/22 03:34:11;;;;;;;11.75;2.03;;;10.10;81.70;;;;;;5049695;28;20506;-82
2023/03/22 03:36:44;;;;;;;7.33;1.73;;;10.10;81.70;;;;;;5032933;28;20157;-83
2023/03/22 03:39:14;;;;;;;7.07;2.53;;;10.00;81.70;;;;;;5031958;28;20072;-82
2023/03/22 03:41:48;;;;;;;7.70;1.90;;;10.10;81.80;;;;;;5032696;28;20054;-83
2023/03/22 03:44:17;;;;;;;7.60;2.05;;;10.10;81.70;;;;;;5031849;28;20053;-82
2023/03/22 03:46:46;;;;;;;8.45;2.22;;;10.10;81.70;;;;;;5039875;28;20107;-82
2023/03/22 03:49:16;;;;;;;6.10;1.90;;;10.10;81.70;;;;;;5050263;28;20052;-82
2023/03/22 03:51:49;;;;;;;9.35;2.33;;;10.10;81.60;;;;;;5040089;28;20042;-83
2023/03/22 03:54:16;;;;;;;6.53;2.03;;;10.10;81.50;;;;;;5040369;28;20061;-83
2023/03/22 03:56:46;;;;;;;7.88;1.75;;;10.10;81.40;;;;;;5040314;28;20046;-83
2023/03/22 03:59:14;;;;;;;9.82;2.25;;;10.10;81.30;;;;;;5031452;28;20419;-83
2023/03/22 04:01:49;;;;;;;7.37;2.20;;;10.10;81.40;;;;;;5032139;28;20050;-82
2023/03/22 04:04:25;;;;;;;9.00;2.70;;;10.10;81.50;;;;;;5032022;28;20092;-82
2023/03/22 04:06:59;;;;;;;9.15;2.67;;;10.10;81.20;;;;;;5032610;28;20669;-83
2023/03/22 04:09:31;;;;;;;10.68;3.13;;;10.10;81.20;;;;;;5031963;28;20085;-82
2023/03/22 04:12:09;;;;;;;9.43;2.95;;;10.10;81.30;;;;;;5032404;28;20053;-82
2023/03/22 04:14:36;;;;;;;9.87;2.90;;;10.10;81.20;;;;;;5068094;28;20055;-83
2023/03/22 04:17:09;;;;;;;9.43;3.25;;;10.10;81.20;;;;;;5039072;28;20515;-82
2023/03/22 04:19:37;;;;;;;8.73;3.22;;;10.20;81.30;;;;;;5032029;28;20503;-83
2023/03/22 04:22:04;;;;;;;10.32;3.60;;;10.20;81.30;;;;;;5031816;28;20069;-82
2023/03/22 04:24:33;;;;;;;10.80;4.18;;;10.20;81.50;;;;;;5032161;28;20053;-82
2023/03/22 04:26:59;;;;;;;12.17;5.20;;;10.20;81.60;;;;;;5048244;28;20124;-81
2023/03/22 04:30:00;;;;;;;10.85;4.68;;;10.20;81.70;;;;;;5044190;28;20172;-82
2023/03/22 04:32:48;;;;;;;13.88;5.38;;;10.30;81.80;;;;;;5033796;28;20532;-82
2023/03/22 04:35:17;;;;;;;13.88;5.07;;;10.30;81.80;;;;;;5029677;28;20061;-82
2023/03/22 04:37:44;;;;;;;13.98;6.07;;;10.30;81.90;;;;;;5032341;28;20140;-81
2023/03/22 04:40:19;;;;;;;14.53;6.37;;;10.30;82.10;;;;;;5050541;28;20056;-83
2023/03/22 04:43:02;;;;;;;13.35;5.63;;;10.30;82.30;;;;;;5048433;28;20053;-82
2023/03/22 04:45:49;;;;;;;12.50;5.68;;;10.30;82.40;;;;;;5031834;28;20081;-83
2023/03/22 04:48:23;;;;;;;14.70;6.60;;;10.30;82.50;;;;;;5050434;28;20143;-83
2023/03/22 04:50:52;;;;;;;16.55;6.72;;;10.40;82.70;;;;;;5046761;28;20077;-83
2023/03/22 04:53:26;;;;;;;13.47;6.50;;;10.40;82.70;;;;;;5031834;28;20512;-82
2023/03/22 04:55:55;;;;;;;13.23;6.40;;;10.40;82.80;;;;;;5037808;28;20593;-82
2023/03/22 04:58:24;;;;;;;13.18;5.90;;;10.40;82.90;;;;;;5051636;28;20530;-82
2023/03/22 05:00:53;;;;;;;13.70;6.40;;;10.40;83.00;;;;;;5042054;28;20049;-83
2023/03/22 05:03:22;;;;;;;17.38;6.75;;;10.40;83.00;;;;;;5031374;28;20049;-83
2023/03/22 05:05:52;;;;;;;15.83;8.03;;;10.40;83.10;;;;;;5039316;28;20470;-83
2023/03/22 05:08:20;;;;;;;13.80;6.78;;;10.40;83.10;;;;;;5048472;28;20119;-83
2023/03/22 05:10:49;;;;;;;14.02;6.70;;;10.40;83.20;;;;;;5031885;28;20053;-84
2023/03/22 05:13:16;;;;;;;17.25;7.72;;;10.50;83.30;;;;;;5031018;28;20490;-84
2023/03/22 05:15:46;;;;;;;15.68;6.97;;;10.40;83.30;;;;;;5031031;28;20057;-84
2023/03/22 05:18:19;;;;;;;14.20;7.03;;;10.50;83.20;;;;;;5031500;28;20085;-84
2023/03/22 05:20:47;;;;;;;14.45;6.65;;;10.40;83.30;;;;;;5034181;28;20076;-84
2023/03/22 05:23:19;;;;;;;13.00;7.28;;;10.40;83.30;;;;;;5030908;28;20056;-84
2023/03/22 05:25:52;;;;;;;15.13;7.10;;;10.40;83.30;;;;;;5031009;28;20443;-83
2023/03/22 05:28:21;;;;;;;14.50;7.20;;;10.40;83.50;;;;;;5031333;28;20053;-83
2023/03/22 05:31:15;;;;;;;13.67;7.30;;;10.40;83.50;;;;;;5008367;28;20065;-84
2023/03/22 05:33:54;;;;;;;13.93;7.75;;;10.40;83.60;;;;;;5011693;28;20057;-83
2023/03/22 05:36:23;;;;;;;18.55;7.93;;;10.40;83.70;;;;;;5030560;28;20049;-82
2023/03/22 05:39:07;;;;;;;14.23;8.32;;;10.40;83.70;;;;;;5033357;28;20046;-84
2023/03/22 05:41:36;;;;;;;15.27;7.07;;;10.40;83.70;;;;;;5031144;28;20514;-84
2023/03/22 05:44:03;;;;;;;13.17;6.63;;;10.40;83.80;;;;;;5030684;28;20144;-84
2023/03/22 05:46:30;;;;;;;16.13;8.73;;;10.40;83.80;;;;;;5031541;28;20251;-81
2023/03/22 05:49:26;;;;;;;15.05;7.18;;;10.40;83.80;;;;;;5045292;28;20050;-83
2023/03/22 05:51:54;;;;;;;13.48;7.47;;;10.40;83.70;;;;;;5030852;28;20114;-84
2023/03/22 05:54:23;;;;;;;15.20;8.43;;;10.40;83.60;;;;;;5030491;28;20086;-81
2023/03/22 05:56:52;;;;;;;16.83;7.60;;;10.40;83.70;;;;;;5030785;28;20045;-84
2023/03/22 05:59:20;;;;;;;15.27;8.23;;;10.40;83.80;;;;;;5030857;28;20045;-85
2023/03/22 06:01:47;;;;;;;14.50;7.03;;;10.40;83.90;;;;;;5030993;28;20052;-82
2023/03/22 06:04:22;;;;;;;14.48;7.28;;;10.40;83.90;;;;;;5037143;28;20053;-84
2023/03/22 06:07:09;;;;;;;16.88;7.00;;;10.40;83.90;;;;;;5050470;28;20049;-82
2023/03/22 06:09:43;;;;;;;13.57;6.57;;;10.40;83.90;;;;;;5050102;28;20045;-83
2023/03/22 06:12:21;;;;;;;16.13;7.85;;;10.40;83.90;;;;;;5044493;28;20558;-83
2023/03/22 06:14:52;;;;;;;12.77;7.25;;;10.40;84.00;;;;;;5021452;28;20050;-84
2023/03/22 06:17:37;;;;;;;15.18;7.07;;;10.40;84.00;;;;;;5028065;28;20045;-84
2023/03/22 06:20:10;;;;;;;13.40;7.05;;;10.40;84.00;;;;;;5034004;28;20076;-83
2023/03/22 06:22:41;;;;;;;15.63;6.87;;;10.40;84.00;;;;;;5034228;28;20131;-83
2023/03/22 06:25:10;;;;;;;14.55;7.47;;;10.40;84.00;;;;;;5031593;28;20056;-82
2023/03/22 06:27:43;;;;;;;14.43;7.63;;;10.40;84.10;;;;;;5034422;28;20054;-84
2023/03/22 06:30:10;;;;;;;13.60;6.85;;;10.40;84.00;;;;;;5026435;28;20057;-83
2023/03/22 06:33:03;;;;;;;14.35;7.20;;;10.40;84.00;;;;;;5029705;28;20045;-82
2023/03/22 06:35:33;;;;;;;14.80;7.50;;;10.40;84.20;;;;;;5027058;28;20053;-85
2023/03/22 06:38:02;;;;;;;15.18;7.53;;;10.50;84.10;;;;;;5032330;28;20057;-83
2023/03/22 06:40:30;;;;;;;14.40;7.25;;;10.50;84.10;;;;;;5028999;28;20053;-84
2023/03/22 06:42:57;;;;;;;17.20;6.55;;;10.50;84.00;;;;;;5025102;28;20052;-85
2023/03/22 06:45:25;;;;;;;15.10;7.28;;;10.50;84.00;;;;;;5031374;28;20053;-84
2023/03/22 06:47:52;;;;;;;14.33;6.77;;;10.50;84.00;;;;;;5030486;28;20049;-84
2023/03/22 06:50:22;;;;;;;13.05;6.60;;;10.50;84.10;;;;;;5043759;28;20551;-81
2023/03/22 06:53:08;;;;;;;11.90;5.13;;;10.50;84.20;;;;;;5029805;28;20053;-84
2023/03/22 06:55:36;;;;;;;16.00;6.55;;;10.50;84.10;;;;;;5033038;28;20053;-83
2023/03/22 06:58:24;;;;;;;14.48;7.32;;;10.50;84.10;;;;;;5034128;28;20054;-84
2023/03/22 07:00:51;;;;;;;14.60;6.60;;;10.60;84.10;;;;;;5027651;28;20045;-82
2023/03/22 07:03:20;;;;;;;11.50;6.10;;;10.60;83.90;;;;;;5028307;28;20063;-83
2023/03/22 07:06:01;;;;;;;13.68;7.18;;;10.60;84.00;;;;;;5021650;28;20661;-85
2023/03/22 07:08:32;;;;;;;13.50;6.53;;;10.60;83.90;;;;;;5022888;28;20058;-83
2023/03/22 07:10:59;;;;;;;12.02;5.03;;;10.60;83.90;;;;;;5045575;28;20666;-84
2023/03/22 07:13:26;;;;;;;14.37;6.07;;;10.70;83.70;;;;;;5025465;28;20483;-83
2023/03/22 07:16:00;;;;;;;9.95;5.10;;;10.70;83.70;;;;;;5033918;28;20123;-84
2023/03/22 07:18:38;;;;;;;10.82;5.60;;;10.70;83.70;;;;;;5034844;28;20176;-84
2023/03/22 07:21:06;;;;;;;13.70;5.60;;;10.70;83.70;;;;;;5028401;28;20137;-83
2023/03/22 07:23:37;;;;;;;9.52;5.18;;;10.70;83.60;;;;;;5034468;28;20080;-86
2023/03/22 07:26:09;;;;;;;11.50;5.23;;;10.70;83.60;;;;;;5032146;28;20058;-84
2023/03/22 07:28:40;;;;;;;12.85;5.60;;;10.70;83.40;;;;;;5031307;28;20050;-82
2023/03/22 07:31:11;;;;;;;11.38;5.93;;;10.80;83.30;;;;;;5029950;28;20056;-84
2023/03/22 07:33:56;;;;;;;12.85;5.28;;;10.80;82.80;;;;;;5047719;28;20133;-82
2023/03/22 07:36:26;;;;;;;9.95;5.13;;;10.80;82.80;;;;;;5030858;28;20061;-84
2023/03/22 07:38:56;;;;;;;12.93;5.10;;;10.80;82.70;;;;;;5032873;28;20100;-84
2023/03/22 07:41:29;;;;;;;12.60;5.35;;;10.90;82.60;;;;;;5024851;28;20482;-83
2023/03/22 07:44:16;;;;;;;10.10;4.28;;;10.90;82.40;;;;;;5047658;28;20063;-82
2023/03/22 07:46:51;;;;;;;10.90;4.72;;;10.90;82.10;;;;;;5027461;28;20058;-84
2023/03/22 07:49:26;;;;;;;10.85;4.50;;;11.00;81.80;;;;;;5037254;28;20053;-81
2023/03/22 07:51:59;;;;;;;10.27;5.10;;;11.00;81.70;;;;;;5040275;28;20155;-84
2023/03/22 07:54:28;;;;;;;11.05;4.93;;;11.00;81.50;;;;;;5029389;28;20057;-85
2023/03/22 07:56:55;;;;;;;10.63;4.70;;;11.00;81.40;;;;;;5028436;28;20076;-86
2023/03/22 07:59:22;;;;;;;10.00;3.85;;;11.00;81.30;;;;;;5031846;28;20053;-84
2023/03/22 08:01:50;;;;;;;9.23;4.40;;;11.00;81.30;;;;;;5031831;28;20173;-83
2023/03/22 08:04:27;;;;;;;9.30;4.03;;;11.00;81.00;;;;;;5032864;28;20076;-84
2023/03/22 08:07:12;;;;;;;9.32;4.40;;;11.00;80.90;;;;;;5046572;28;20151;-83
2023/03/22 08:09:43;;;;;;;11.20;4.70;;;11.00;80.80;;;;;;5032169;28;20793;-84
2023/03/22 08:12:11;;;;;;;7.80;3.97;;;11.00;80.70;;;;;;5032107;28;20136;-83
2023/03/22 08:14:39;;;;;;;11.70;3.70;;;11.00;80.80;;;;;;5033824;28;20566;-84
2023/03/22 08:17:14;;;;;;;8.83;4.03;;;11.00;80.90;;;;;;5028244;28;20045;-85
2023/03/22 08:19:41;;;;;;;10.38;4.40;;;11.00;80.90;;;;;;5030007;28;20081;-83
2023/03/22 08:22:14;;;;;;;10.27;4.18;;;11.00;80.80;;;;;;5028042;28;20057;-84
2023/03/22 08:25:10;;;;;;;9.38;3.80;;;11.00;80.60;;;;;;5040871;28;20053;-83
2023/03/22 08:27:39;;;;;;;9.30;3.90;;;11.00;80.60;;;;;;5019374;28;20526;-85
2023/03/22 08:30:08;;;;;;;9.90;3.80;;;11.00;80.40;;;;;;5030929;28;20053;-83
2023/03/22 08:32:36;;;;;;;8.98;3.75;;;11.10;80.00;;;;;;5030348;28;20053;-85
2023/03/22 08:35:05;;;;;;;8.68;3.30;;;11.10;80.20;;;;;;5031952;28;20053;-85
2023/03/22 08:37:32;;;;;;;10.82;3.97;;;11.00;80.00;;;;;;5032300;28;20049;-82
2023/03/22 08:40:05;;;;;;;10.25;4.55;;;11.10;79.80;;;;;;5027666;28;20057;-84
2023/03/22 08:42:39;;;;;;;9.37;4.23;;;11.00;80.00;;;;;;5028478;28;20050;-85
2023/03/22 08:45:09;;;;;;;14.65;4.40;;;11.10;80.00;;;;;;5026375;28;20049;-88
2023/03/22 08:47:38;;;;;;;9.73;3.63;;;11.10;79.80;;;;;;5029584;28;20403;-86
2023/03/22 08:50:09;;;;;;;7.80;3.72;;;11.10;79.80;;;;;;5025914;28;20054;-84
2023/03/22 08:52:47;;;;;;;11.32;3.72;;;11.10;80.20;;;;;;5022901;28;20053;-84
2023/03/22 08:55:30;;;;;;;9.13;3.90;;;11.10;80.40;;;;;;5028193;28;20527;-82
2023/03/22 08:58:17;;;;;;;10.55;3.58;;;11.10;80.00;;;;;;5039785;28;20152;-85
2023/03/22 09:01:04;;;;;;;12.15;3.88;;;11.10;79.90;;;;;;5040974;28;20184;-85
2023/03/22 09:03:38;;;;;;;9.82;3.50;;;11.10;80.10;;;;;;5021662;28;20053;-83
2023/03/22 09:06:07;;;;;;;8.90;3.60;;;11.20;79.70;;;;;;5029619;28;20045;-85
2023/03/22 09:08:38;;;;;;;11.50;3.50;;;11.30;79.50;;;;;;5027976;28;20065;-85
2023/03/22 09:11:11;;;;;;;9.55;3.90;;;11.30;79.50;;;;;;5025108;28;20060;-84
2023/03/22 09:13:40;;;;;;;7.75;2.50;;;11.30;79.20;;;;;;5023447;28;20530;-83
2023/03/22 09:16:08;;;;;;;13.13;4.07;;;11.40;78.90;;;;;;5022983;28;20060;-84
2023/03/22 09:18:35;;;;;;;12.48;3.85;;;11.40;78.60;;;;;;5027417;28;20174;-85
2023/03/22 09:21:10;;;;;;;10.47;3.40;;;11.40;78.80;;;;;;5023673;28;20050;-84
2023/03/22 09:23:46;;;;;;;8.13;3.25;;;11.40;78.90;;;;;;5026072;28;20065;-85
2023/03/22 09:26:15;;;;;;;10.13;2.63;;;11.50;78.40;;;;;;5027383;28;20713;-85
2023/03/22 09:28:45;;;;;;;11.95;3.45;;;11.50;78.10;;;;;;5027593;28;20592;-82
2023/03/22 09:31:12;;;;;;;9.75;3.28;;;11.50;78.30;;;;;;5024575;28;20046;-83
2023/03/22 09:33:41;;;;;;;8.50;2.87;;;11.50;78.10;;;;;;5022914;28;20056;-84
2023/03/22 09:36:10;;;;;;;8.80;3.55;;;11.50;78.30;;;;;;5022488;28;20270;-81
2023/03/22 09:38:40;;;;;;;10.18;3.00;;;11.50;78.20;;;;;;5021582;28;20053;-83
2023/03/22 09:41:12;;;;;;;8.20;2.70;;;11.50;78.00;;;;;;5022986;28;20500;-82
2023/03/22 09:43:47;;;;;;;11.13;3.05;;;11.50;78.00;;;;;;5027874;28;20057;-83
2023/03/22 09:46:20;;;;;;;9.00;3.17;;;11.50;77.60;;;;;;5022979;28;20049;-80
2023/03/22 09:48:49;;;;;;;10.65;3.20;;;11.50;77.60;;;;;;5041828;28;20042;-82
2023/03/22 09:51:28;;;;;;;9.93;3.10;;;11.50;77.60;;;;;;5041024;28;20054;-82
2023/03/22 09:53:55;;;;;;;7.88;2.78;;;11.50;77.50;;;;;;5024988;28;20129;-83
2023/03/22 09:56:26;;;;;;;9.18;2.92;;;11.50;77.70;;;;;;5039624;28;20133;-81
2023/03/22 09:59:00;;;;;;;10.07;3.20;;;11.50;77.70;;;;;;5037856;28;20119;-83
2023/03/22 10:01:36;;;;;;;9.75;2.55;;;11.50;77.80;;;;;;5042515;28;20582;-84
2023/03/22 10:04:40;;;;;;;8.50;2.90;;;11.50;77.70;;;;;;5043459;28;20053;-84
2023/03/22 10:07:17;;;;;;;9.40;3.00;;;11.50;77.70;;;;;;5045893;28;20056;-83
2023/03/22 10:09:53;;;;;;;11.00;2.90;;;11.50;77.50;;;;;;5042625;28;20734;-82
2023/03/22 10:12:26;;;;;;;8.70;3.10;;;11.50;77.90;;;;;;5047100;28;20056;-82
2023/03/22 10:15:03;;;;;;;9.60;2.97;;;11.50;77.60;;;;;;5047158;28;20515;-82
2023/03/22 10:17:31;;;;;;;7.25;2.83;;;11.50;77.60;;;;;;5045010;28;20228;-82
2023/03/22 10:20:04;;;;;;;7.85;2.90;;;11.50;77.90;;;;;;5028735;28;20220;-82
2023/03/22 10:22:35;;;;;;;9.23;2.67;;;11.50;77.50;;;;;;5061092;28;20111;-83
2023/03/22 10:25:04;;;;;;;8.83;2.53;;;11.50;77.50;;;;;;5045070;28;20168;-82
2023/03/22 10:27:34;;;;;;;8.43;3.00;;;11.50;77.60;;;;;;5045553;28;20126;-83
2023/03/22 10:30:08;;;;;;;7.43;2.83;;;11.50;77.60;;;;;;5048023;28;20128;-83
2023/03/22 10:32:41;;;;;;;10.25;3.58;;;11.50;77.60;;;;;;5030494;28;20081;-82
2023/03/22 10:35:13;;;;;;;9.57;3.05;;;11.50;77.70;;;;;;5046377;28;20055;-83
2023/03/22 10:37:41;;;;;;;8.63;2.40;;;11.50;77.20;;;;;;5027660;28;20053;-83
2023/03/22 10:40:16;;;;;;;10.20;2.53;;;11.50;77.00;;;;;;5045356;28;20137;-84
2023/03/22 10:42:51;;;;;;;9.13;2.67;;;11.50;77.30;;;;;;5022983;28;20541;-82
2023/03/22 10:45:21;;;;;;;8.40;2.50;;;11.50;77.20;;;;;;5043649;28;20119;-83
2023/03/22 10:47:56;;;;;;;7.95;2.60;;;11.50;77.30;;;;;;5046038;28;20069;-83
2023/03/22 10:50:28;;;;;;;6.77;2.37;;;11.50;77.40;;;;;;5046075;28;20049;-83
2023/03/22 10:53:01;;;;;;;6.70;2.50;;;11.50;77.30;;;;;;5045889;28;20061;-83
2023/03/22 10:55:29;;;;;;;9.20;2.83;;;11.50;77.50;;;;;;5046540;28;20496;-86
2023/03/22 10:58:08;;;;;;;7.80;2.17;;;11.50;77.90;;;;;;5043695;28;20077;-83
2023/03/22 11:00:37;;;;;;;7.40;2.55;;;11.50;77.70;;;;;;5045643;28;20104;-83
2023/03/22 11:03:06;;;;;;;6.50;2.33;;;11.50;77.90;;;;;;5032636;28;20153;-84
2023/03/22 11:05:33;;;;;;;10.25;2.47;;;11.40;78.30;;;;;;5044979;28;20518;-82
2023/03/22 11:08:02;;;;;;;10.05;2.70;;;11.40;78.60;;;;;;5041130;28;20150;-82
2023/03/22 11:10:31;;;;;;;9.77;3.00;;;11.40;78.70;;;;;;5040722;28;20077;-82
2023/03/22 11:13:17;;;;;;;11.20;2.65;;;11.40;79.10;;;;;;5043699;28;20611;-82
2023/03/22 11:15:54;;;;;;;9.53;2.50;;;11.40;79.20;;;;;;5019279;28;20153;-81
2023/03/22 11:18:21;;;;;;;7.45;2.10;;;11.40;79.20;;;;;;5025001;28;20046;-82
2023/03/22 11:20:58;;;;;;;7.80;2.33;;;11.40;79.40;;;;;;5026152;28;20054;-83
2023/03/22 11:23:28;;;;;;;8.25;2.10;;;11.40;79.60;;;;;;5025151;28;20046;-84
2023/03/22 11:25:59;;;;;;;6.53;2.42;;;11.30;79.70;;;;;;5028677;28;20050;-83
2023/03/22 11:28:32;;;;;;;8.57;2.30;;;11.30;80.10;;;;;;5052916;28;20058;-84
2023/03/22 11:31:05;;;;;;;7.60;2.20;;;11.30;80.30;;;;;;5038269;28;20141;-83
2023/03/22 11:33:33;;;;;;;7.70;2.40;;;11.30;80.50;;;;;;5030019;28;20049;-83
2023/03/22 11:36:03;;;;;;;7.10;2.60;;;11.30;80.60;;;;;;5039352;28;20200;-83
2023/03/22 11:38:36;;;;;;;11.32;2.47;;;11.20;80.90;;;;;;5043081;28;20046;-83
2023/03/22 11:41:07;;;;;;;6.50;2.07;;;11.30;80.80;;;;;;5026191;28;20054;-83
2023/03/22 11:43:37;;;;;;;7.45;2.53;;;11.20;81.20;;;;;;5045734;28;20136;-82
2023/03/22 11:46:08;;;;;;;8.13;2.20;;;11.30;81.10;;;;;;5047117;28;20054;-83
2023/03/22 11:48:36;;;;;;;9.23;2.08;;;11.20;81.40;;;;;;5047193;28;20141;-83
2023/03/22 11:51:10;;;;;;;8.90;2.45;;;11.20;81.40;;;;;;5044691;28;20089;-84
2023/03/22 11:53:40;;;;;;;7.37;2.10;;;11.20;81.70;;;;;;5046519;28;20119;-85
2023/03/22 11:56:10;;;;;;;8.75;2.47;;;11.20;82.00;;;;;;5031478;28;20057;-84
2023/03/22 11:58:50;;;;;;;6.32;2.10;;;11.20;82.00;;;;;;5028252;28;20045;-85
2023/03/22 12:01:24;;;;;;;8.43;2.95;;;11.20;82.10;;;;;;5023393;28;20046;-85
2023/03/22 12:03:56;;;;;;;7.53;1.85;;;11.20;82.30;;;;;;5046075;28;20593;-84
2023/03/22 12:06:26;;;;;;;7.47;2.60;;;11.20;82.40;;;;;;5046454;28;20054;-85
2023/03/22 12:08:58;;;;;;;7.93;2.80;;;11.10;82.30;;;;;;5031234;28;20049;-83
2023/03/22 12:11:29;;;;;;;7.57;2.35;;;11.20;82.30;;;;;;5046084;28;20130;-83
2023/03/22 12:14:00;;;;;;;7.63;2.63;;;11.10;82.50;;;;;;5042742;28;20120;-82
2023/03/22 12:16:32;;;;;;;8.02;2.72;;;11.10;82.30;;;;;;5041562;28;20121;-82
2023/03/22 12:19:09;;;;;;;7.70;2.77;;;11.10;82.50;;;;;;5022438;28;20092;-82
2023/03/22 12:21:36;;;;;;;6.38;2.90;;;11.10;82.50;;;;;;5043268;28;20527;-82
2023/03/22 12:24:11;;;;;;;6.88;3.42;;;11.10;82.70;;;;;;5027536;28;20053;-83
2023/03/22 12:26:39;;;;;;;8.82;3.20;;;11.10;82.50;;;;;;5045509;28;20164;-83
2023/03/22 12:29:15;;;;;;;8.27;3.17;;;11.10;82.60;;;;;;5026240;28;20045;-81
2023/03/22 12:31:48;;;;;;;8.90;3.40;;;11.20;82.60;;;;;;5026142;28;20114;-80
2023/03/22 12:34:18;;;;;;;8.30;2.47;;;11.10;82.60;;;;;;5021867;28;20131;-81
2023/03/22 12:36:48;;;;;;;8.43;3.70;;;11.10;82.80;;;;;;5043636;28;20054;-81
2023/03/22 12:39:23;;;;;;;7.80;2.72;;;11.10;82.90;;;;;;5029056;28;20585;-81
2023/03/22 12:41:55;;;;;;;8.88;3.30;;;11.20;82.60;;;;;;5039363;28;20108;-82
2023/03/22 12:44:27;;;;;;;7.63;2.93;;;11.10;82.80;;;;;;5040679;28;20499;-80
2023/03/22 12:47:00;;;;;;;9.23;3.35;;;11.10;83.00;;;;;;5041258;28;20096;-81
2023/03/22 12:49:34;;;;;;;9.82;3.33;;;11.10;83.10;;;;;;5045532;28;20081;-82
2023/03/22 12:52:05;;;;;;;8.60;2.88;;;11.10;83.20;;;;;;5027615;28;20053;-84
2023/03/22 12:54:33;;;;;;;9.30;3.63;;;11.10;83.30;;;;;;5041942;28;20056;-83
2023/03/22 12:57:01;;;;;;;11.40;3.67;;;11.10;83.70;;;;;;5023162;28;20057;-83
2023/03/22 12:59:31;;;;;;;8.85;3.60;;;11.10;83.90;;;;;;5042102;28;20154;-83
2023/03/22 13:02:07;;;;;;;9.05;3.03;;;11.10;84.20;;;;;;5041209;28;20061;-83
2023/03/22 13:04:50;;;;;;;10.70;3.50;;;11.10;84.40;;;;;;5039038;28;20071;-84
2023/03/22 13:07:33;;;;;;;8.73;3.17;;;11.10;84.80;;;;;;5041515;28;20135;-84
2023/03/22 13:10:01;;;;;;;10.30;3.40;;;11.10;84.80;;;;;;5040031;28;20053;-84
2023/03/22 13:12:34;;;;;;;6.95;2.80;;;11.10;85.10;;;;;;5041505;28;20054;-83